sensor_id;sensor_type;location;lat;lon;timestamp;pressure;altitude;pressure_sealevel;temperature;humidity
1480;BME280;732;51.698;4.886;2023-08-17T00:02:06;102196.09;;;15.52;68.12
1480;BME280;732;51.698;4.886;2023-08-17T00:04:36;102193.56;;;15.51;67.61
1480;BME280;732;51.698;4.886;2023-08-17T00:07:04;102175.22;;;15.61;66.93
1480;BME280;732;51.698;4.886;2023-08-17T00:09:33;102193.50;;;15.59;67.23
1480;BME280;732;51.698;4.886;2023-08-17T00:12:01;102194.16;;;15.61;67.32
1480;BME280;732;51.698;4.886;2023-08-17T00:14:31;102186.88;;;15.62;67.38
1480;BME280;732;51.698;4.886;2023-08-17T00:17:00;102188.75;;;15.61;67.19
1480;BME280;732;51.698;4.886;2023-08-17T00:19:29;102185.09;;;15.54;67.53
1480;BME280;732;51.698;4.886;2023-08-17T00:22:00;102179.31;;;15.57;67.57
1480;BME280;732;51.698;4.886;2023-08-17T00:24:28;102180.06;;;15.66;67.46
1480;BME280;732;51.698;4.886;2023-08-17T00:26:57;102180.91;;;15.66;67.37
1480;BME280;732;51.698;4.886;2023-08-17T00:29:25;102175.44;;;15.75;66.73
1480;BME280;732;51.698;4.886;2023-08-17T00:31:56;102179.00;;;15.75;66.37
1480;BME280;732;51.698;4.886;2023-08-17T00:34:24;102145.72;;;15.51;66.73
1480;BME280;732;51.698;4.886;2023-08-17T00:36:52;102160.34;;;15.42;67.24
1480;BME280;732;51.698;4.886;2023-08-17T00:39:22;102162.38;;;15.40;66.92
1480;BME280;732;51.698;4.886;2023-08-17T00:41:50;102184.94;;;15.32;67.41
1480;BME280;732;51.698;4.886;2023-08-17T00:44:19;102163.13;;;15.34;67.29
1480;BME280;732;51.698;4.886;2023-08-17T00:46:47;102186.31;;;15.66;66.75
1480;BME280;732;51.698;4.886;2023-08-17T00:49:16;102181.38;;;15.70;66.80
1480;BME280;732;51.698;4.886;2023-08-17T00:51:44;102181.81;;;15.44;66.83
1480;BME280;732;51.698;4.886;2023-08-17T00:54:13;102165.69;;;15.50;67.33
1480;BME280;732;51.698;4.886;2023-08-17T00:56:45;102183.22;;;15.54;67.09
1480;BME280;732;51.698;4.886;2023-08-17T00:59:13;102196.25;;;15.36;67.08
1480;BME280;732;51.698;4.886;2023-08-17T01:01:42;102195.28;;;15.29;67.53
1480;BME280;732;51.698;4.886;2023-08-17T01:04:11;102189.44;;;15.40;67.17
1480;BME280;732;51.698;4.886;2023-08-17T01:06:39;102195.69;;;15.40;67.07
1480;BME280;732;51.698;4.886;2023-08-17T01:09:08;102176.47;;;15.35;66.79
1480;BME280;732;51.698;4.886;2023-08-17T01:11:44;102201.69;;;15.51;66.99
1480;BME280;732;51.698;4.886;2023-08-17T01:14:23;102194.63;;;15.65;66.14
1480;BME280;732;51.698;4.886;2023-08-17T01:17:00;102190.44;;;15.62;65.77
1480;BME280;732;51.698;4.886;2023-08-17T01:19:32;102187.53;;;15.64;66.02
1480;BME280;732;51.698;4.886;2023-08-17T01:22:05;102175.69;;;15.65;65.85
1480;BME280;732;51.698;4.886;2023-08-17T01:24:34;102182.59;;;15.67;65.71
1480;BME280;732;51.698;4.886;2023-08-17T01:27:03;102180.53;;;15.54;65.95
1480;BME280;732;51.698;4.886;2023-08-17T01:29:31;102170.16;;;15.43;65.55
1480;BME280;732;51.698;4.886;2023-08-17T01:32:07;102178.84;;;15.53;65.59
1480;BME280;732;51.698;4.886;2023-08-17T01:34:40;102157.59;;;15.27;65.96
1480;BME280;732;51.698;4.886;2023-08-17T01:37:15;102178.81;;;14.92;67.28
1480;BME280;732;51.698;4.886;2023-08-17T01:39:52;102168.13;;;14.67;67.83
1480;BME280;732;51.698;4.886;2023-08-17T01:42:23;102173.72;;;14.66;68.02
1480;BME280;732;51.698;4.886;2023-08-17T01:44:54;102179.78;;;14.68;67.92
1480;BME280;732;51.698;4.886;2023-08-17T01:47:23;102161.84;;;14.75;67.57
1480;BME280;732;51.698;4.886;2023-08-17T01:49:53;102156.84;;;14.64;67.52
1480;BME280;732;51.698;4.886;2023-08-17T01:52:22;102179.41;;;14.79;67.96
1480;BME280;732;51.698;4.886;2023-08-17T01:54:53;102149.53;;;14.72;67.79
1480;BME280;732;51.698;4.886;2023-08-17T01:57:21;102180.44;;;15.01;67.29
1480;BME280;732;51.698;4.886;2023-08-17T01:59:50;102174.44;;;15.14;66.73
1480;BME280;732;51.698;4.886;2023-08-17T02:02:19;102169.03;;;15.14;66.57
1480;BME280;732;51.698;4.886;2023-08-17T02:04:49;102164.41;;;15.00;66.83
1480;BME280;732;51.698;4.886;2023-08-17T02:07:17;102170.09;;;15.05;67.07
1480;BME280;732;51.698;4.886;2023-08-17T02:09:48;102164.22;;;15.01;66.90
1480;BME280;732;51.698;4.886;2023-08-17T02:12:18;102168.50;;;14.96;67.02
1480;BME280;732;51.698;4.886;2023-08-17T02:14:46;102174.38;;;14.99;67.10
1480;BME280;732;51.698;4.886;2023-08-17T02:17:15;102173.53;;;14.99;67.02
1480;BME280;732;51.698;4.886;2023-08-17T02:19:45;102167.31;;;14.98;67.21
1480;BME280;732;51.698;4.886;2023-08-17T02:22:14;102166.69;;;15.11;66.78
1480;BME280;732;51.698;4.886;2023-08-17T02:24:43;102160.88;;;14.99;66.56
1480;BME280;732;51.698;4.886;2023-08-17T02:27:12;102161.72;;;15.00;66.54
1480;BME280;732;51.698;4.886;2023-08-17T02:29:42;102162.44;;;14.94;67.06
1480;BME280;732;51.698;4.886;2023-08-17T02:32:10;102160.72;;;14.92;66.26
1480;BME280;732;51.698;4.886;2023-08-17T02:34:38;102161.75;;;14.91;66.69
1480;BME280;732;51.698;4.886;2023-08-17T02:37:07;102131.34;;;14.66;66.82
1480;BME280;732;51.698;4.886;2023-08-17T02:39:36;102137.28;;;14.93;66.53
1480;BME280;732;51.698;4.886;2023-08-17T02:42:05;102159.69;;;15.02;66.31
1480;BME280;732;51.698;4.886;2023-08-17T02:44:33;102137.09;;;14.95;65.88
1480;BME280;732;51.698;4.886;2023-08-17T02:47:04;102148.06;;;15.16;65.83
1480;BME280;732;51.698;4.886;2023-08-17T02:49:32;102158.16;;;15.22;65.51
1480;BME280;732;51.698;4.886;2023-08-17T02:52:01;102155.78;;;15.04;66.12
1480;BME280;732;51.698;4.886;2023-08-17T02:54:29;102137.09;;;14.95;66.20
1480;BME280;732;51.698;4.886;2023-08-17T02:56:59;102165.47;;;15.14;66.37
1480;BME280;732;51.698;4.886;2023-08-17T02:59:27;102130.88;;;14.86;66.03
1480;BME280;732;51.698;4.886;2023-08-17T03:01:55;102164.41;;;15.00;66.25
1480;BME280;732;51.698;4.886;2023-08-17T03:04:25;102153.47;;;15.16;66.17
1480;BME280;732;51.698;4.886;2023-08-17T03:06:55;102160.91;;;15.37;65.45
1480;BME280;732;51.698;4.886;2023-08-17T03:09:24;102164.41;;;15.23;65.11
1480;BME280;732;51.698;4.886;2023-08-17T03:11:52;102135.06;;;14.88;65.63
1480;BME280;732;51.698;4.886;2023-08-17T03:14:20;102160.50;;;15.02;65.92
1480;BME280;732;51.698;4.886;2023-08-17T03:16:48;102165.78;;;15.19;65.56
1480;BME280;732;51.698;4.886;2023-08-17T03:19:17;102133.13;;;14.74;66.51
1480;BME280;732;51.698;4.886;2023-08-17T03:21:46;102167.34;;;15.13;65.94
1480;BME280;732;51.698;4.886;2023-08-17T03:24:15;102134.72;;;14.91;65.73
1480;BME280;732;51.698;4.886;2023-08-17T03:26:43;102147.63;;;14.81;66.40
1480;BME280;732;51.698;4.886;2023-08-17T03:29:11;102164.53;;;14.75;67.04
1480;BME280;732;51.698;4.886;2023-08-17T03:31:40;102157.22;;;14.84;67.15
1480;BME280;732;51.698;4.886;2023-08-17T03:34:09;102152.00;;;14.90;66.91
1480;BME280;732;51.698;4.886;2023-08-17T03:36:37;102159.13;;;14.75;66.78
1480;BME280;732;51.698;4.886;2023-08-17T03:39:07;102151.94;;;14.67;67.15
1480;BME280;732;51.698;4.886;2023-08-17T03:41:37;102153.91;;;14.73;67.26
1480;BME280;732;51.698;4.886;2023-08-17T03:44:05;102147.13;;;14.78;66.79
1480;BME280;732;51.698;4.886;2023-08-17T03:46:34;102148.56;;;14.65;66.88
1480;BME280;732;51.698;4.886;2023-08-17T03:49:04;102153.00;;;14.58;67.32
1480;BME280;732;51.698;4.886;2023-08-17T03:51:32;102151.66;;;14.54;66.97
1480;BME280;732;51.698;4.886;2023-08-17T03:54:00;102149.25;;;14.59;67.23
1480;BME280;732;51.698;4.886;2023-08-17T03:56:30;102153.97;;;14.34;67.83
1480;BME280;732;51.698;4.886;2023-08-17T03:58:58;102147.56;;;14.26;68.01
1480;BME280;732;51.698;4.886;2023-08-17T04:01:27;102158.91;;;14.22;68.07
1480;BME280;732;51.698;4.886;2023-08-17T04:03:55;102171.06;;;14.18;68.19
1480;BME280;732;51.698;4.886;2023-08-17T04:06:24;102167.84;;;14.14;68.31
1480;BME280;732;51.698;4.886;2023-08-17T04:08:52;102170.53;;;14.22;68.27
1480;BME280;732;51.698;4.886;2023-08-17T04:11:20;102145.13;;;14.08;68.36
1480;BME280;732;51.698;4.886;2023-08-17T04:13:51;102169.53;;;14.23;68.45
1480;BME280;732;51.698;4.886;2023-08-17T04:16:20;102167.13;;;14.37;67.67
1480;BME280;732;51.698;4.886;2023-08-17T04:18:48;102155.47;;;14.36;67.55
1480;BME280;732;51.698;4.886;2023-08-17T04:21:17;102137.53;;;14.12;68.10
1480;BME280;732;51.698;4.886;2023-08-17T04:23:45;102162.06;;;14.25;67.97
1480;BME280;732;51.698;4.886;2023-08-17T04:26:13;102171.75;;;14.11;68.62
1480;BME280;732;51.698;4.886;2023-08-17T04:28:42;102127.47;;;13.81;68.86
1480;BME280;732;51.698;4.886;2023-08-17T04:31:12;102172.31;;;13.99;68.95
1480;BME280;732;51.698;4.886;2023-08-17T04:33:40;102181.38;;;13.89;69.48
1480;BME280;732;51.698;4.886;2023-08-17T04:36:09;102180.41;;;13.99;69.52
1480;BME280;732;51.698;4.886;2023-08-17T04:38:37;102174.81;;;14.08;69.10
1480;BME280;732;51.698;4.886;2023-08-17T04:41:06;102177.31;;;14.10;69.24
1480;BME280;732;51.698;4.886;2023-08-17T04:43:34;102165.22;;;14.06;69.15
1480;BME280;732;51.698;4.886;2023-08-17T04:46:03;102178.16;;;14.10;69.37
1480;BME280;732;51.698;4.886;2023-08-17T04:48:33;102160.41;;;14.24;68.76
1480;BME280;732;51.698;4.886;2023-08-17T04:51:01;102169.88;;;14.20;68.89
1480;BME280;732;51.698;4.886;2023-08-17T04:53:29;102164.75;;;14.34;68.69
1480;BME280;732;51.698;4.886;2023-08-17T04:55:58;102153.47;;;14.30;68.53
1480;BME280;732;51.698;4.886;2023-08-17T04:58:28;102168.94;;;14.45;68.35
1480;BME280;732;51.698;4.886;2023-08-17T05:00:57;102168.06;;;14.44;68.36
1480;BME280;732;51.698;4.886;2023-08-17T05:03:26;102163.63;;;14.59;67.75
1480;BME280;732;51.698;4.886;2023-08-17T05:06:02;102130.75;;;14.48;67.72
1480;BME280;732;51.698;4.886;2023-08-17T05:08:32;102163.63;;;14.59;68.00
1480;BME280;732;51.698;4.886;2023-08-17T05:11:01;102172.00;;;14.73;67.63
1480;BME280;732;51.698;4.886;2023-08-17T05:13:29;102166.91;;;14.78;67.24
1480;BME280;732;51.698;4.886;2023-08-17T05:16:02;102144.09;;;14.49;67.62
1480;BME280;732;51.698;4.886;2023-08-17T05:18:31;102156.41;;;14.52;68.15
1480;BME280;732;51.698;4.886;2023-08-17T05:21:01;102162.13;;;14.57;68.01
1480;BME280;732;51.698;4.886;2023-08-17T05:23:31;102165.31;;;14.61;68.23
1480;BME280;732;51.698;4.886;2023-08-17T05:25:59;102161.03;;;14.66;67.45
1480;BME280;732;51.698;4.886;2023-08-17T05:28:29;102160.41;;;14.64;67.97
1480;BME280;732;51.698;4.886;2023-08-17T05:31:04;102149.44;;;14.57;67.91
1480;BME280;732;51.698;4.886;2023-08-17T05:33:36;102177.03;;;14.76;67.24
1480;BME280;732;51.698;4.886;2023-08-17T05:36:05;102171.28;;;14.79;67.35
1480;BME280;732;51.698;4.886;2023-08-17T05:38:34;102174.28;;;14.84;67.05
1480;BME280;732;51.698;4.886;2023-08-17T05:41:02;102165.63;;;14.66;67.44
1480;BME280;732;51.698;4.886;2023-08-17T05:43:32;102158.50;;;14.73;67.40
1480;BME280;732;51.698;4.886;2023-08-17T05:46:00;102171.38;;;14.94;67.15
1480;BME280;732;51.698;4.886;2023-08-17T05:48:29;102180.00;;;14.89;66.80
1480;BME280;732;51.698;4.886;2023-08-17T05:50:58;102165.25;;;14.69;67.38
1480;BME280;732;51.698;4.886;2023-08-17T05:53:28;102179.31;;;14.87;67.18
1480;BME280;732;51.698;4.886;2023-08-17T05:55:56;102172.72;;;14.90;67.38
1480;BME280;732;51.698;4.886;2023-08-17T05:58:25;102175.41;;;14.90;67.41
1480;BME280;732;51.698;4.886;2023-08-17T06:00:53;102176.78;;;14.94;67.29
1480;BME280;732;51.698;4.886;2023-08-17T06:03:21;102184.25;;;15.15;67.06
1480;BME280;732;51.698;4.886;2023-08-17T06:05:52;102186.03;;;15.23;66.30
1480;BME280;732;51.698;4.886;2023-08-17T06:08:21;102184.25;;;15.15;66.38
1480;BME280;732;51.698;4.886;2023-08-17T06:10:51;102190.69;;;15.14;66.67
1480;BME280;732;51.698;4.886;2023-08-17T06:13:19;102188.44;;;15.18;66.66
1480;BME280;732;51.698;4.886;2023-08-17T06:15:47;102163.69;;;15.06;67.01
1480;BME280;732;51.698;4.886;2023-08-17T06:18:16;102156.31;;;15.00;66.64
1480;BME280;732;51.698;4.886;2023-08-17T06:20:45;102160.66;;;15.09;66.40
1480;BME280;732;51.698;4.886;2023-08-17T06:23:15;102189.75;;;15.45;66.13
1480;BME280;732;51.698;4.886;2023-08-17T06:25:43;102190.53;;;15.54;65.95
1480;BME280;732;51.698;4.886;2023-08-17T06:28:12;102194.81;;;15.86;65.04
1480;BME280;732;51.698;4.886;2023-08-17T06:30:41;102198.53;;;15.85;65.02
1480;BME280;732;51.698;4.886;2023-08-17T06:33:09;102182.28;;;15.85;64.29
1480;BME280;732;51.698;4.886;2023-08-17T06:35:37;102194.53;;;15.96;64.77
1480;BME280;732;51.698;4.886;2023-08-17T06:38:06;102171.53;;;16.22;63.66
1480;BME280;732;51.698;4.886;2023-08-17T06:40:35;102195.78;;;16.60;63.72
1480;BME280;732;51.698;4.886;2023-08-17T06:43:03;102192.00;;;16.25;63.35
1480;BME280;732;51.698;4.886;2023-08-17T06:45:35;102175.47;;;16.04;63.83
1480;BME280;732;51.698;4.886;2023-08-17T06:48:03;102187.06;;;16.13;63.83
1480;BME280;732;51.698;4.886;2023-08-17T06:50:32;102190.59;;;16.29;63.77
1480;BME280;732;51.698;4.886;2023-08-17T06:53:04;102197.75;;;16.51;63.77
1480;BME280;732;51.698;4.886;2023-08-17T06:55:32;102191.41;;;16.44;63.26
1480;BME280;732;51.698;4.886;2023-08-17T06:58:01;102191.72;;;16.19;63.40
1480;BME280;732;51.698;4.886;2023-08-17T07:00:29;102177.97;;;16.21;63.86
1480;BME280;732;51.698;4.886;2023-08-17T07:02:58;102184.53;;;16.27;64.01
1480;BME280;732;51.698;4.886;2023-08-17T07:05:27;102183.88;;;16.25;63.87
1480;BME280;732;51.698;4.886;2023-08-17T07:07:56;102186.69;;;16.31;63.88
1480;BME280;732;51.698;4.886;2023-08-17T07:10:24;102190.13;;;16.40;64.19
1480;BME280;732;51.698;4.886;2023-08-17T07:12:53;102186.63;;;16.61;63.76
1480;BME280;732;51.698;4.886;2023-08-17T07:15:21;102187.41;;;16.92;63.49
1480;BME280;732;51.698;4.886;2023-08-17T07:17:49;102184.38;;;17.01;62.91
1480;BME280;732;51.698;4.886;2023-08-17T07:20:19;102179.84;;;17.30;62.66
1480;BME280;732;51.698;4.886;2023-08-17T07:22:48;102186.56;;;17.56;61.99
1480;BME280;732;51.698;4.886;2023-08-17T07:25:17;102182.53;;;17.74;60.99
1480;BME280;732;51.698;4.886;2023-08-17T07:27:45;102184.41;;;17.73;60.79
1480;BME280;732;51.698;4.886;2023-08-17T07:30:13;102194.84;;;17.76;60.51
1480;BME280;732;51.698;4.886;2023-08-17T07:32:42;102191.66;;;18.01;59.93
1480;BME280;732;51.698;4.886;2023-08-17T07:35:10;102194.03;;;17.76;59.36
1480;BME280;732;51.698;4.886;2023-08-17T07:37:40;102180.69;;;17.81;60.21
1480;BME280;732;51.698;4.886;2023-08-17T07:40:12;102191.81;;;17.93;59.69
1480;BME280;732;51.698;4.886;2023-08-17T07:42:40;102190.41;;;17.97;59.84
1480;BME280;732;51.698;4.886;2023-08-17T07:45:09;102193.47;;;18.22;59.47
1480;BME280;732;51.698;4.886;2023-08-17T07:47:38;102193.16;;;18.10;58.72
1480;BME280;732;51.698;4.886;2023-08-17T07:50:07;102190.56;;;18.30;58.90
1480;BME280;732;51.698;4.886;2023-08-17T07:52:40;102190.16;;;18.27;59.51
1480;BME280;732;51.698;4.886;2023-08-17T07:55:08;102198.00;;;18.50;59.39
1480;BME280;732;51.698;4.886;2023-08-17T07:57:36;102200.94;;;18.49;58.42
1480;BME280;732;51.698;4.886;2023-08-17T08:00:06;102188.69;;;18.31;58.28
1480;BME280;732;51.698;4.886;2023-08-17T08:02:35;102184.50;;;18.28;59.09
1480;BME280;732;51.698;4.886;2023-08-17T08:05:04;102188.59;;;18.46;59.29
1480;BME280;732;51.698;4.886;2023-08-17T08:07:33;102178.16;;;18.50;59.57
1480;BME280;732;51.698;4.886;2023-08-17T08:10:03;102188.41;;;18.19;58.95
1480;BME280;732;51.698;4.886;2023-08-17T08:12:31;102193.81;;;18.48;58.31
1480;BME280;732;51.698;4.886;2023-08-17T08:15:00;102198.34;;;19.02;58.41
1480;BME280;732;51.698;4.886;2023-08-17T08:17:28;102191.94;;;19.37;57.51
1480;BME280;732;51.698;4.886;2023-08-17T08:19:57;102190.41;;;19.07;56.56
1480;BME280;732;51.698;4.886;2023-08-17T08:22:26;102196.47;;;19.03;56.91
1480;BME280;732;51.698;4.886;2023-08-17T08:24:54;102174.97;;;19.68;56.52
1480;BME280;732;51.698;4.886;2023-08-17T08:27:24;102191.41;;;20.14;53.58
1480;BME280;732;51.698;4.886;2023-08-17T08:29:53;102189.13;;;20.11;54.98
1480;BME280;732;51.698;4.886;2023-08-17T08:32:21;102189.44;;;20.41;54.06
1480;BME280;732;51.698;4.886;2023-08-17T08:34:51;102183.59;;;20.83;54.17
1480;BME280;732;51.698;4.886;2023-08-17T08:37:20;102171.53;;;20.65;53.13
1480;BME280;732;51.698;4.886;2023-08-17T08:39:49;102176.41;;;20.50;53.35
1480;BME280;732;51.698;4.886;2023-08-17T08:42:18;102180.75;;;20.64;54.06
1480;BME280;732;51.698;4.886;2023-08-17T08:44:49;102174.94;;;20.93;54.16
1480;BME280;732;51.698;4.886;2023-08-17T08:47:18;102171.81;;;20.89;54.09
1480;BME280;732;51.698;4.886;2023-08-17T08:49:55;102171.59;;;21.16;54.02
1480;BME280;732;51.698;4.886;2023-08-17T08:52:33;102163.41;;;21.48;52.89
1480;BME280;732;51.698;4.886;2023-08-17T08:55:14;102152.63;;;21.53;52.37
1480;BME280;732;51.698;4.886;2023-08-17T08:57:44;102161.81;;;21.33;51.12
1480;BME280;732;51.698;4.886;2023-08-17T09:00:19;102163.41;;;21.16;52.66
1480;BME280;732;51.698;4.886;2023-08-17T09:02:49;102159.47;;;21.12;52.23
1480;BME280;732;51.698;4.886;2023-08-17T09:05:17;102157.84;;;21.04;52.66
1480;BME280;732;51.698;4.886;2023-08-17T09:07:48;102154.97;;;21.24;52.61
1480;BME280;732;51.698;4.886;2023-08-17T09:10:17;102157.47;;;21.26;51.85
1480;BME280;732;51.698;4.886;2023-08-17T09:12:47;102171.91;;;21.58;52.57
1480;BME280;732;51.698;4.886;2023-08-17T09:15:16;102160.72;;;21.85;52.18
1480;BME280;732;51.698;4.886;2023-08-17T09:17:46;102164.38;;;21.97;51.22
1480;BME280;732;51.698;4.886;2023-08-17T09:20:37;102157.13;;;22.40;51.07
1480;BME280;732;51.698;4.886;2023-08-17T09:23:14;102157.16;;;22.71;49.92
1480;BME280;732;51.698;4.886;2023-08-17T09:25:45;102139.38;;;23.04;49.71
1480;BME280;732;51.698;4.886;2023-08-17T09:28:15;102137.41;;;23.35;49.07
1480;BME280;732;51.698;4.886;2023-08-17T09:30:53;102141.34;;;23.51;47.99
1480;BME280;732;51.698;4.886;2023-08-17T09:33:25;102132.63;;;23.77;48.39
1480;BME280;732;51.698;4.886;2023-08-17T09:35:55;102127.69;;;24.15;47.60
1480;BME280;732;51.698;4.886;2023-08-17T09:38:26;102135.25;;;24.25;47.08
1480;BME280;732;51.698;4.886;2023-08-17T09:40:57;102128.84;;;24.19;47.27
1480;BME280;732;51.698;4.886;2023-08-17T09:43:26;102131.22;;;24.28;46.94
1480;BME280;732;51.698;4.886;2023-08-17T09:45:58;102139.31;;;24.22;45.92
1480;BME280;732;51.698;4.886;2023-08-17T09:48:27;102120.03;;;24.17;47.09
1480;BME280;732;51.698;4.886;2023-08-17T09:51:00;102144.84;;;24.51;46.47
1480;BME280;732;51.698;4.886;2023-08-17T09:53:34;102116.22;;;24.47;46.44
1480;BME280;732;51.698;4.886;2023-08-17T09:56:05;102126.19;;;24.53;45.63
1480;BME280;732;51.698;4.886;2023-08-17T09:58:42;102134.44;;;24.53;47.00
1480;BME280;732;51.698;4.886;2023-08-17T10:01:12;102138.41;;;24.75;45.93
1480;BME280;732;51.698;4.886;2023-08-17T10:03:44;102131.84;;;24.76;45.64
1480;BME280;732;51.698;4.886;2023-08-17T10:06:13;102133.50;;;24.77;45.63
1480;BME280;732;51.698;4.886;2023-08-17T10:08:47;102114.16;;;24.54;45.44
1480;BME280;732;51.698;4.886;2023-08-17T10:11:19;102140.72;;;24.37;46.45
1480;BME280;732;51.698;4.886;2023-08-17T10:13:52;102140.81;;;24.13;46.80
1480;BME280;732;51.698;4.886;2023-08-17T10:16:26;102147.75;;;23.80;46.64
1480;BME280;732;51.698;4.886;2023-08-17T10:19:05;102112.44;;;23.43;47.54
1480;BME280;732;51.698;4.886;2023-08-17T10:21:43;102138.00;;;23.37;48.09
1480;BME280;732;51.698;4.886;2023-08-17T10:24:12;102132.28;;;23.15;48.73
1480;BME280;732;51.698;4.886;2023-08-17T10:26:41;102139.75;;;22.95;49.46
1480;BME280;732;51.698;4.886;2023-08-17T10:29:10;102138.41;;;22.74;49.64
1480;BME280;732;51.698;4.886;2023-08-17T10:31:44;102111.88;;;22.56;49.46
1480;BME280;732;51.698;4.886;2023-08-17T10:34:15;102102.88;;;22.56;50.00
1480;BME280;732;51.698;4.886;2023-08-17T10:36:45;102106.38;;;22.75;49.20
1480;BME280;732;51.698;4.886;2023-08-17T10:39:24;102116.41;;;22.93;49.94
1480;BME280;732;51.698;4.886;2023-08-17T10:41:57;102126.47;;;23.23;48.67
1480;BME280;732;51.698;4.886;2023-08-17T10:44:44;102116.34;;;23.47;48.24
1480;BME280;732;51.698;4.886;2023-08-17T10:47:25;102126.31;;;23.77;48.17
1480;BME280;732;51.698;4.886;2023-08-17T10:50:06;102113.41;;;23.89;47.42
1480;BME280;732;51.698;4.886;2023-08-17T10:52:36;102123.78;;;23.87;47.58
1480;BME280;732;51.698;4.886;2023-08-17T10:55:07;102109.78;;;23.72;48.09
1480;BME280;732;51.698;4.886;2023-08-17T10:57:38;102102.16;;;23.50;47.83
1480;BME280;732;51.698;4.886;2023-08-17T11:00:18;102126.69;;;23.45;48.51
1480;BME280;732;51.698;4.886;2023-08-17T11:02:58;102125.00;;;23.32;48.43
1480;BME280;732;51.698;4.886;2023-08-17T11:05:43;102126.69;;;23.09;48.25
1480;BME280;732;51.698;4.886;2023-08-17T11:08:21;102127.84;;;22.90;48.60
1480;BME280;732;51.698;4.886;2023-08-17T11:11:03;102117.66;;;22.36;50.15
1480;BME280;732;51.698;4.886;2023-08-17T11:13:33;102132.75;;;22.39;50.15
1480;BME280;732;51.698;4.886;2023-08-17T11:16:04;102127.59;;;22.30;50.53
1480;BME280;732;51.698;4.886;2023-08-17T11:18:34;102123.50;;;22.40;50.92
1480;BME280;732;51.698;4.886;2023-08-17T11:21:05;102112.56;;;22.40;50.89
1480;BME280;732;51.698;4.886;2023-08-17T11:23:36;102119.16;;;22.62;51.10
1480;BME280;732;51.698;4.886;2023-08-17T11:26:05;102118.06;;;22.94;50.79
1480;BME280;732;51.698;4.886;2023-08-17T11:28:35;102112.03;;;23.16;50.26
1480;BME280;732;51.698;4.886;2023-08-17T11:31:10;102123.00;;;23.51;50.04
1480;BME280;732;51.698;4.886;2023-08-17T11:33:40;102103.13;;;23.56;49.13
1480;BME280;732;51.698;4.886;2023-08-17T11:36:10;102110.78;;;23.95;48.05
1480;BME280;732;51.698;4.886;2023-08-17T11:38:40;102118.63;;;24.15;48.16
1480;BME280;732;51.698;4.886;2023-08-17T11:41:10;102110.28;;;24.38;47.38
1480;BME280;732;51.698;4.886;2023-08-17T11:43:42;102111.72;;;24.41;46.95
1480;BME280;732;51.698;4.886;2023-08-17T11:46:12;102111.72;;;24.41;46.63
1480;BME280;732;51.698;4.886;2023-08-17T11:48:40;102124.16;;;24.32;47.17
1480;BME280;732;51.698;4.886;2023-08-17T11:51:10;102131.16;;;24.11;47.64
1480;BME280;732;51.698;4.886;2023-08-17T11:53:39;102109.53;;;23.73;47.71
1480;BME280;732;51.698;4.886;2023-08-17T11:56:08;102108.09;;;23.71;48.20
1480;BME280;732;51.698;4.886;2023-08-17T11:58:41;102120.84;;;23.77;48.70
1480;BME280;732;51.698;4.886;2023-08-17T12:01:12;102100.28;;;23.51;48.77
1480;BME280;732;51.698;4.886;2023-08-17T12:03:44;102110.84;;;23.71;49.03
1480;BME280;732;51.698;4.886;2023-08-17T12:06:16;102075.38;;;23.64;48.54
1480;BME280;732;51.698;4.886;2023-08-17T12:08:46;102096.78;;;23.79;48.20
1480;BME280;732;51.698;4.886;2023-08-17T12:11:16;102106.28;;;23.88;48.48
1480;BME280;732;51.698;4.886;2023-08-17T12:13:49;102096.16;;;23.77;49.29
1480;BME280;732;51.698;4.886;2023-08-17T12:16:19;102100.03;;;23.64;48.43
1480;BME280;732;51.698;4.886;2023-08-17T12:18:48;102106.22;;;23.59;49.03
1480;BME280;732;51.698;4.886;2023-08-17T12:21:21;102101.34;;;23.50;49.10
1480;BME280;732;51.698;4.886;2023-08-17T12:23:50;102102.16;;;23.50;49.42
1480;BME280;732;51.698;4.886;2023-08-17T12:26:19;102106.00;;;23.49;49.61
1480;BME280;732;51.698;4.886;2023-08-17T12:28:49;102105.16;;;23.60;49.22
1480;BME280;732;51.698;4.886;2023-08-17T12:31:22;102088.59;;;23.55;49.26
1480;BME280;732;51.698;4.886;2023-08-17T12:33:51;102101.81;;;23.58;49.19
1480;BME280;732;51.698;4.886;2023-08-17T12:36:21;102111.22;;;23.51;49.35
1480;BME280;732;51.698;4.886;2023-08-17T12:38:49;102113.00;;;23.45;49.33
1480;BME280;732;51.698;4.886;2023-08-17T12:41:18;102116.44;;;23.28;50.07
1480;BME280;732;51.698;4.886;2023-08-17T12:43:46;102115.59;;;23.16;49.84
1480;BME280;732;51.698;4.886;2023-08-17T12:46:15;102118.19;;;22.99;50.12
1480;BME280;732;51.698;4.886;2023-08-17T12:48:43;102092.06;;;22.73;50.46
1480;BME280;732;51.698;4.886;2023-08-17T12:51:11;102120.97;;;22.69;50.50
1480;BME280;732;51.698;4.886;2023-08-17T12:53:41;102114.25;;;22.53;51.20
1480;BME280;732;51.698;4.886;2023-08-17T12:56:16;102108.16;;;22.39;51.77
1480;BME280;732;51.698;4.886;2023-08-17T12:58:44;102116.81;;;22.36;51.88
1480;BME280;732;51.698;4.886;2023-08-17T13:01:13;102100.59;;;22.22;52.50
1480;BME280;732;51.698;4.886;2023-08-17T13:03:41;102102.28;;;22.23;52.09
1480;BME280;732;51.698;4.886;2023-08-17T13:06:10;102099.94;;;22.08;52.81
1480;BME280;732;51.698;4.886;2023-08-17T13:08:38;102103.56;;;22.21;52.86
1480;BME280;732;51.698;4.886;2023-08-17T13:11:07;102111.53;;;22.22;52.58
1480;BME280;732;51.698;4.886;2023-08-17T13:13:36;102103.34;;;22.22;52.69
1480;BME280;732;51.698;4.886;2023-08-17T13:16:04;102107.63;;;22.30;52.86
1480;BME280;732;51.698;4.886;2023-08-17T13:18:32;102105.72;;;22.30;52.85
1480;BME280;732;51.698;4.886;2023-08-17T13:21:01;102099.44;;;22.30;52.93
1480;BME280;732;51.698;4.886;2023-08-17T13:23:29;102100.75;;;22.39;52.79
1480;BME280;732;51.698;4.886;2023-08-17T13:25:57;102092.81;;;22.38;52.65
1480;BME280;732;51.698;4.886;2023-08-17T13:28:28;102089.78;;;22.27;52.53
1480;BME280;732;51.698;4.886;2023-08-17T13:30:56;102108.84;;;22.34;53.10
1480;BME280;732;51.698;4.886;2023-08-17T13:33:44;102098.13;;;22.32;52.84
1480;BME280;732;51.698;4.886;2023-08-17T13:36:12;102084.19;;;22.22;53.04
1480;BME280;732;51.698;4.886;2023-08-17T13:38:40;102096.22;;;22.33;53.41